This is the latest recevied weather packets stored in our database for station/object VK5TRM-13. If no packets are shown the sender has not sent any weather packets the latest 1 day(s).
| Time | Temp. | Humidity | Pressure | Rain* | Wind** | Luminosity | Snow |
|---|---|---|---|---|---|---|---|
| 1778099405 | 7.78° C | 86% | 1027.6 hPa | 0.51 mm | - | - | - |
| 1778091305 | 8.89° C | 80% | 1026.6 hPa | 0.51 mm | - | - | - |
| 1778085905 | 8.33° C | 77% | 1026.2 hPa | 0.51 mm | - | - | - |
| 1778076905 | 11.67° C | 80% | 1025.2 hPa | 0.51 mm | - | - | - |
| 1778076005 | 12.22° C | 80% | 1025 hPa | 0.51 mm | - | - | - |
| 1778074205 | 12.22° C | 80% | 1024.8 hPa | 0.51 mm | - | - | - |
| 1778073305 | 12.22° C | 80% | 1024.8 hPa | 0.51 mm | - | - | - |
| 1778070605 | 13.33° C | 84% | 1024.5 hPa | 0.51 mm | - | - | - |
| 1778069705 | 13.33° C | 84% | 1024.5 hPa | 0.51 mm | - | - | - |
| 1778066105 | 13.33° C | 89% | 1024.1 hPa | 0.51 mm | - | - | - |
| 1778058905 | 13.89° C | 91% | 1022.3 hPa | 0.51 mm | - | - | - |
| 1778055305 | 14.44° C | 92% | 1022 hPa | 0.51 mm | - | - | - |
| 1778052605 | 17.78° C | 69% | 1021.1 hPa | 0 mm | - | - | - |
| 1778050805 | 19.44° C | 52% | 1020.6 hPa | 0 mm | - | - | - |
| 1778049905 | 19.44° C | 52% | 1020.6 hPa | 0 mm | - | - | - |
| 1778046305 | 19.44° C | 51% | 1020.8 hPa | 0 mm | - | - | - |
| 1778045405 | 19.44° C | 51% | 1021 hPa | 0 mm | - | - | - |
| 1778041805 | 18.89° C | 51% | 1021.4 hPa | 0 mm | - | - | - |
| 1778040905 | 18.89° C | 51% | 1021.4 hPa | 0 mm | - | - | - |
| 1778037305 | 18.89° C | 51% | 1022.1 hPa | 0 mm | - | - | - |
| 1778035505 | 18.33° C | 53% | 1022.8 hPa | 0 mm | - | - | - |
| 1778032805 | 16.11° C | 66% | 1023.7 hPa | 0 mm | - | - | - |
* Rain since midnight (hover to see other rain measurements)
** Current wind speed in m/s (hover to see current wind gust speed)